Time;durP1;ratioP1;P1;durP2;ratioP2;P2;SDS_P1;SDS_P2;PMS_P1;PMS_P2;Temp;Humidity;BMP_temperature;BMP_pressure;BME280_temperature;BME280_humidity;BME280_pressure;Samples;Min_cycle;Max_cycle;Signal;HPM_P1;HPM_P2
2023/09/26 00:00:14;;;;;;;1.50;1.50;;;;;;;17.02;72.11;97280.59;4891001;29;20071;-71
2023/09/26 00:02:41;;;;;;;1.63;1.63;;;;;;;16.93;72.58;97277.47;4891495;29;20505;-70
2023/09/26 00:05:09;;;;;;;1.60;1.60;;;;;;;16.90;72.84;97283.88;4890833;29;20067;-72
2023/09/26 00:07:36;;;;;;;1.70;1.70;;;;;;;16.63;72.35;97228.41;4873986;29;20063;-72
2023/09/26 00:10:05;;;;;;;1.55;1.55;;;;;;;15.09;72.16;96974.56;4890950;29;20270;-71
2023/09/26 00:12:32;;;;;;;1.50;1.50;;;;;;;17.03;72.51;97282.19;4890876;29;20160;-71
2023/09/26 00:15:00;;;;;;;1.70;1.70;;;;;;;17.00;72.58;97280.22;4890835;29;20492;-70
2023/09/26 00:17:27;;;;;;;1.70;1.70;;;;;;;17.05;72.52;97274.19;4890728;29;20057;-70
2023/09/26 00:19:54;;;;;;;1.63;1.63;;;;;;;16.95;72.89;97283.41;4890886;29;20140;-71
2023/09/26 00:22:21;;;;;;;1.45;1.45;;;;;;;16.66;72.41;97220.41;4890304;29;20100;-72
2023/09/26 00:24:48;;;;;;;1.48;1.48;;;;;;;17.09;72.42;97274.97;4890997;29;20056;-71
2023/09/26 00:27:15;;;;;;;1.50;1.50;;;;;;;16.99;72.64;97271.03;4889340;29;20588;-71
2023/09/26 00:29:42;;;;;;;1.50;1.50;;;;;;;16.63;73.08;97246.38;4890427;29;20144;-71
2023/09/26 00:32:09;;;;;;;1.65;1.65;;;;;;;17.02;72.70;97275.00;4890251;29;20083;-71
2023/09/26 00:34:35;;;;;;;1.70;1.70;;;;;;;17.08;72.61;97267.78;4890128;29;20061;-71
2023/09/26 00:37:02;;;;;;;1.70;1.70;;;;;;;17.01;72.75;97270.63;4873462;29;20067;-71
2023/09/26 00:39:30;;;;;;;1.55;1.55;;;;;;;16.99;72.89;97271.03;4873706;29;20064;-71
2023/09/26 00:41:56;;;;;;;1.60;1.60;;;;;;;17.04;73.14;97278.22;4890217;29;20103;-71
2023/09/26 00:44:23;;;;;;;1.60;1.60;;;;;;;17.00;73.48;97271.81;4888538;29;20064;-70
2023/09/26 00:46:50;;;;;;;1.55;1.55;;;;;;;16.32;72.80;97159.38;4890363;29;20056;-72
2023/09/26 00:49:17;;;;;;;1.75;1.75;;;;;;;16.29;72.88;97149.00;4890490;29;20112;-71
2023/09/26 00:51:44;;;;;;;1.45;1.45;;;;;;;17.15;72.88;97274.13;4889888;29;20529;-71
2023/09/26 00:54:11;;;;;;;1.70;1.70;;;;;;;17.24;72.79;97270.91;4890514;29;20060;-71
2023/09/26 00:56:39;;;;;;;1.52;1.52;;;;;;;16.99;72.96;97219.84;4889894;29;20060;-71
2023/09/26 00:59:06;;;;;;;1.50;1.50;;;;;;;17.42;72.82;97266.00;4890413;29;20071;-71
2023/09/26 01:01:35;;;;;;;1.60;1.60;;;;;;;17.11;72.81;97278.16;4889782;29;20067;-71
2023/09/26 01:04:04;;;;;;;1.80;1.80;;;;;;;17.54;72.68;97268.34;4890230;29;20052;-71
2023/09/26 01:06:31;;;;;;;1.77;1.77;;;;;;;17.70;72.16;97261.00;4889405;29;20568;-71
2023/09/26 01:08:58;;;;;;;1.70;1.70;;;;;;;17.76;72.14;97259.38;4888506;29;20540;-70
2023/09/26 01:11:25;;;;;;;1.70;1.70;;;;;;;17.65;72.57;97266.28;4872989;29;20067;-70
2023/09/26 01:13:52;;;;;;;1.80;1.80;;;;;;;17.75;72.58;97271.00;4890044;29;20516;-71
2023/09/26 01:16:20;;;;;;;1.80;1.80;;;;;;;17.79;72.52;97263.34;4889468;29;20491;-71
2023/09/26 01:18:47;;;;;;;1.73;1.73;;;;;;;17.89;71.98;97268.09;4889931;29;20056;-71
2023/09/26 01:21:15;;;;;;;1.77;1.77;;;;;;;17.90;72.23;97269.69;4888238;29;20539;-72
2023/09/26 01:23:48;;;;;;;1.88;1.88;;;;;;;17.90;72.16;97264.06;4889758;29;20530;-69
2023/09/26 01:26:15;;;;;;;;;;;;;;;17.96;71.96;97268.03;4888799;29;20488;-70
2023/09/26 01:28:42;;;;;;;1.70;1.70;;;;;;;17.82;72.75;97273.75;4889599;29;20030;-70
2023/09/26 01:31:08;;;;;;;1.67;1.67;;;;;;;17.50;73.03;97217.94;4889329;29;20147;-71
2023/09/26 01:33:35;;;;;;;1.63;1.63;;;;;;;17.94;72.74;97270.47;4889845;29;20419;-71
2023/09/26 01:36:02;;;;;;;1.70;1.70;;;;;;;17.84;73.16;97260.94;4859507;29;20061;-71
2023/09/26 01:38:29;;;;;;;1.70;1.70;;;;;;;17.92;72.26;97272.88;4852660;29;20505;-71
2023/09/26 01:40:55;;;;;;;1.73;1.73;;;;;;;17.77;72.37;97223.72;4852077;29;20069;-71
2023/09/26 01:43:22;;;;;;;1.73;1.73;;;;;;;17.66;73.13;97225.81;4852467;29;20132;-70
2023/09/26 01:45:49;;;;;;;1.60;1.60;;;;;;;17.83;73.07;97222.09;4851918;29;20065;-71
2023/09/26 01:48:16;;;;;;;1.90;1.90;;;;;;;17.55;73.30;97185.91;4852081;29;20106;-71
2023/09/26 01:50:43;;;;;;;2.00;2.00;;;;;;;17.88;73.23;97230.03;4851944;29;20069;-71
2023/09/26 01:53:13;;;;;;;1.70;1.70;;;;;;;18.24;73.06;97267.75;4852170;29;20573;-72
2023/09/26 01:55:40;;;;;;;1.90;1.90;;;;;;;18.26;73.40;97265.34;4850355;29;20602;-70
2023/09/26 01:58:07;;;;;;;1.60;1.60;;;;;;;18.36;73.30;97267.25;4889422;29;20064;-71
2023/09/26 02:00:34;;;;;;;1.70;1.70;;;;;;;18.36;73.17;97281.28;4888569;29;20109;-71
2023/09/26 02:03:01;;;;;;;2.10;2.10;;;;;;;18.19;72.94;97242.19;4889256;29;20536;-70
2023/09/26 02:05:28;;;;;;;1.92;1.92;;;;;;;18.42;72.66;97278.84;4889149;29;20428;-70
2023/09/26 02:07:55;;;;;;;1.60;1.60;;;;;;;17.89;72.40;97179.19;4872074;29;20064;-71
2023/09/26 02:10:22;;;;;;;1.90;1.90;;;;;;;18.35;72.95;97270.50;4888782;29;20069;-71
2023/09/26 02:12:50;;;;;;;1.60;1.60;;;;;;;17.75;73.30;97178.53;4887985;29;20068;-71
2023/09/26 02:15:17;;;;;;;1.70;1.70;;;;;;;18.03;73.32;97218.31;4887599;29;20064;-70
2023/09/26 02:17:44;;;;;;;1.50;1.50;;;;;;;18.24;74.14;97267.75;4889201;29;20432;-70
2023/09/26 02:20:14;;;;;;;1.70;1.70;;;;;;;18.39;73.67;97266.47;4872132;29;20052;-70
2023/09/26 02:22:45;;;;;;;2.00;2.00;;;;;;;18.36;72.92;97270.06;4889177;29;20059;-70
2023/09/26 02:25:13;;;;;;;1.80;1.80;;;;;;;18.41;73.01;97272.47;4889011;29;20056;-69
2023/09/26 02:27:41;;;;;;;1.80;1.80;;;;;;;17.79;73.51;97194.09;4887373;29;20502;-69
2023/09/26 02:30:10;;;;;;;1.77;1.77;;;;;;;18.27;73.64;97261.34;4892472;29;20073;-70
2023/09/26 02:32:38;;;;;;;1.80;1.80;;;;;;;18.17;73.92;97262.25;4875812;29;20071;-70
2023/09/26 02:35:08;;;;;;;1.90;1.90;;;;;;;18.13;74.46;97266.28;4875255;29;20524;-70
2023/09/26 02:37:35;;;;;;;1.70;1.70;;;;;;;17.68;74.34;97218.63;4892780;29;20066;-69
2023/09/26 02:40:05;;;;;;;1.80;1.80;;;;;;;17.27;75.91;97192.47;4875946;29;20056;-70
2023/09/26 02:42:33;;;;;;;1.80;1.80;;;;;;;17.81;75.64;97261.72;4892367;29;20064;-70
2023/09/26 02:45:00;;;;;;;1.63;1.63;;;;;;;17.86;75.28;97266.13;4892417;29;20738;-70
2023/09/26 02:47:27;;;;;;;1.90;1.90;;;;;;;17.85;75.29;97265.31;4890872;29;20052;-70
2023/09/26 02:49:54;;;;;;;1.75;1.75;;;;;;;17.79;75.75;97268.97;4892307;29;20052;-70
2023/09/26 02:52:25;;;;;;;1.60;1.60;;;;;;;15.83;75.91;96950.00;4875454;29;20064;-71
2023/09/26 02:54:52;;;;;;;1.85;1.85;;;;;;;17.84;75.87;97260.94;4892267;29;20072;-70
2023/09/26 02:57:19;;;;;;;1.60;1.60;;;;;;;17.71;76.12;97262.63;4892372;29;20063;-70
2023/09/26 02:59:46;;;;;;;1.58;1.58;;;;;;;17.47;77.61;97262.78;4892628;29;20056;-70
2023/09/26 03:02:13;;;;;;;1.80;1.80;;;;;;;17.34;77.25;97230.84;4875619;29;20064;-70
2023/09/26 03:04:39;;;;;;;1.50;1.50;;;;;;;17.71;76.73;97267.41;4892292;29;20057;-69
2023/09/26 03:07:06;;;;;;;1.80;1.80;;;;;;;17.77;76.41;97271.38;4890708;29;20064;-71
2023/09/26 03:09:33;;;;;;;1.60;1.60;;;;;;;17.15;76.78;97187.34;4891044;29;20854;-70
2023/09/26 03:12:00;;;;;;;1.60;1.60;;;;;;;17.60;78.02;97266.69;4891904;29;20175;-70
2023/09/26 03:14:27;;;;;;;1.60;1.60;;;;;;;17.24;78.14;97198.91;4892085;29;20108;-69
2023/09/26 03:16:54;;;;;;;1.88;1.88;;;;;;;17.76;77.41;97273.41;4891836;29;20064;-69
2023/09/26 03:19:23;;;;;;;1.88;1.88;;;;;;;17.77;77.37;97274.97;4892158;29;20052;-69
2023/09/26 03:21:50;;;;;;;1.73;1.73;;;;;;;17.83;77.35;97269.75;4891451;29;20103;-69
2023/09/26 03:24:18;;;;;;;1.63;1.63;;;;;;;17.74;77.84;97277.81;4891807;29;20075;-69
2023/09/26 03:26:45;;;;;;;2.00;2.00;;;;;;;17.60;77.70;97261.09;4874699;29;20210;-69
2023/09/26 03:29:12;;;;;;;1.60;1.60;;;;;;;17.82;78.02;97279.34;4890168;29;20554;-70
2023/09/26 03:31:42;;;;;;;1.77;1.77;;;;;;;17.96;77.88;97273.63;4891682;29;20068;-69
2023/09/26 03:34:09;;;;;;;1.60;1.60;;;;;;;17.96;77.90;97273.63;4891961;29;20063;-70
2023/09/26 03:36:36;;;;;;;1.70;1.70;;;;;;;17.88;78.70;97266.47;4891385;29;20080;-69
2023/09/26 03:39:03;;;;;;;1.70;1.70;;;;;;;17.88;79.20;97272.09;4891006;29;20448;-69
2023/09/26 03:41:32;;;;;;;1.73;1.73;;;;;;;17.42;79.60;97187.59;4891580;29;20139;-70
2023/09/26 03:43:58;;;;;;;1.70;1.70;;;;;;;18.12;78.81;97271.09;4891863;29;20059;-70
2023/09/26 03:46:25;;;;;;;1.90;1.90;;;;;;;18.11;79.08;97275.91;4891180;29;20063;-70
2023/09/26 03:48:52;;;;;;;1.60;1.60;;;;;;;18.17;78.95;97281.88;4891715;29;20067;-70
2023/09/26 03:51:19;;;;;;;1.77;1.77;;;;;;;18.05;79.68;97260.72;4890754;29;20068;-70
2023/09/26 03:53:46;;;;;;;1.95;1.95;;;;;;;18.09;79.24;97247.50;4891371;29;20061;-69
2023/09/26 03:56:12;;;;;;;1.80;1.80;;;;;;;18.27;79.25;97266.97;4891363;29;20087;-70
2023/09/26 03:58:39;;;;;;;1.63;1.63;;;;;;;18.36;79.33;97275.69;4890597;29;20063;-69
2023/09/26 04:01:16;;;;;;;1.90;1.90;;;;;;;18.45;79.31;97273.22;4890855;29;20052;-70
2023/09/26 04:03:46;;;;;;;1.60;1.60;;;;;;;18.50;78.63;97286.78;4889302;29;20056;-71
2023/09/26 04:06:13;;;;;;;1.83;1.83;;;;;;;17.14;78.38;97045.00;4889381;29;20297;-71
2023/09/26 04:08:40;;;;;;;1.50;1.50;;;;;;;18.64;78.32;97278.22;4890441;29;20059;-69
2023/09/26 04:11:16;;;;;;;1.83;1.83;;;;;;;18.63;77.53;97284.25;4890414;29;20064;-70
2023/09/26 04:13:44;;;;;;;1.85;1.85;;;;;;;18.66;77.38;97284.22;4890716;29;20171;-70
2023/09/26 04:16:11;;;;;;;1.73;1.73;;;;;;;18.71;76.96;97292.19;4890728;29;20063;-69
2023/09/26 04:18:38;;;;;;;1.88;1.88;;;;;;;18.68;77.14;97290.22;4891043;29;20061;-69
2023/09/26 04:21:06;;;;;;;1.85;1.85;;;;;;;18.68;76.90;97290.22;4873154;29;20079;-70
2023/09/26 04:23:38;;;;;;;1.77;1.77;;;;;;;17.99;76.36;97169.88;4890674;29;20070;-69
2023/09/26 04:26:15;;;;;;;1.90;1.90;;;;;;;18.83;76.31;97282.41;4890204;29;20541;-70
2023/09/26 04:28:44;;;;;;;2.00;2.00;;;;;;;18.42;76.00;97206.72;4890981;29;20061;-70
2023/09/26 04:31:18;;;;;;;1.65;1.65;;;;;;;18.91;76.09;97290.34;4873961;29;20061;-71
2023/09/26 04:33:47;;;;;;;1.67;1.67;;;;;;;19.02;75.66;97285.41;4891057;29;20414;-69
2023/09/26 04:36:15;;;;;;;1.77;1.77;;;;;;;19.13;75.26;97288.06;4882866;29;20060;-71
2023/09/26 04:38:42;;;;;;;1.90;1.90;;;;;;;19.14;75.29;97284.84;4878713;29;20521;-70
2023/09/26 04:41:08;;;;;;;2.42;2.40;;;;;;;19.31;74.52;97285.88;4870313;29;20060;-69
2023/09/26 04:43:36;;;;;;;1.90;1.90;;;;;;;19.25;74.50;97265.81;4872142;29;20075;-71
2023/09/26 04:46:10;;;;;;;1.90;1.90;;;;;;;19.50;74.22;97283.19;4871206;29;20154;-70
2023/09/26 04:48:39;;;;;;;1.70;1.70;;;;;;;19.18;73.90;97243.47;4869968;29;20061;-71
2023/09/26 04:51:10;;;;;;;1.83;1.83;;;;;;;19.64;73.31;97275.75;4870447;29;20060;-72
2023/09/26 04:53:37;;;;;;;1.90;1.90;;;;;;;19.71;73.14;97281.28;4871032;29;20098;-71
2023/09/26 04:56:05;;;;;;;1.88;1.88;;;;;;;19.69;73.11;97284.53;4870870;29;20513;-70
2023/09/26 04:58:32;;;;;;;2.20;2.20;;;;;;;19.77;72.93;97285.22;4870411;29;20067;-70
2023/09/26 05:01:02;;;;;;;1.90;1.90;;;;;;;19.67;73.00;97274.91;4871235;29;20084;-70
2023/09/26 05:03:29;;;;;;;1.90;1.90;;;;;;;19.92;72.35;97287.38;4854908;29;20520;-70
2023/09/26 05:05:56;;;;;;;2.00;2.00;;;;;;;19.91;72.57;97291.41;4871296;29;20060;-70
2023/09/26 05:08:23;;;;;;;1.90;1.90;;;;;;;20.05;72.28;97291.19;4870957;29;20204;-71
2023/09/26 05:10:50;;;;;;;2.10;2.10;;;;;;;20.21;71.94;97282.13;4870823;29;20076;-69
2023/09/26 05:13:16;;;;;;;2.10;2.10;;;;;;;20.30;71.13;97268.28;4870997;29;20065;-70
2023/09/26 05:15:43;;;;;;;2.20;2.20;;;;;;;18.14;70.33;96915.41;4870390;29;20164;-68
2023/09/26 05:18:10;;;;;;;1.92;1.92;;;;;;;20.17;70.85;97258.88;4868517;29;20052;-69
2023/09/26 05:20:37;;;;;;;1.90;1.90;;;;;;;20.56;70.84;97287.13;4869865;29;20072;-70
2023/09/26 05:23:04;;;;;;;2.13;2.13;;;;;;;20.70;70.41;97286.84;4852874;29;20052;-70
2023/09/26 05:25:33;;;;;;;1.80;1.80;;;;;;;20.87;69.55;97285.72;4869565;29;20558;-70
2023/09/26 05:27:59;;;;;;;2.20;2.20;;;;;;;21.13;68.96;97286.84;4870062;29;20053;-70
2023/09/26 05:30:26;;;;;;;2.55;2.45;;;;;;;20.97;68.53;97250.94;4870178;29;20505;-70
2023/09/26 05:32:53;;;;;;;2.15;2.15;;;;;;;21.02;68.25;97261.72;4870924;29;20061;-69
2023/09/26 05:35:23;;;;;;;2.05;2.05;;;;;;;20.87;68.60;97272.44;4869432;29;20087;-70
2023/09/26 05:37:50;;;;;;;1.75;1.75;;;;;;;20.94;68.29;97257.41;4871173;29;20056;-70
2023/09/26 05:40:16;;;;;;;1.95;1.95;;;;;;;21.05;68.10;97269.31;4870779;29;20064;-70
2023/09/26 05:42:43;;;;;;;2.28;2.28;;;;;;;21.25;67.79;97303.88;4870722;29;20097;-69
2023/09/26 05:45:11;;;;;;;2.30;2.30;;;;;;;21.40;67.98;97299.56;4853875;29;20053;-70
2023/09/26 05:47:38;;;;;;;2.20;2.20;;;;;;;21.51;67.55;97319.84;4866195;29;20061;-62
2023/09/26 05:50:06;;;;;;;2.03;2.03;;;;;;;21.17;66.89;97251.72;4867686;29;20164;-66
2023/09/26 05:52:33;;;;;;;2.13;2.13;;;;;;;21.70;66.51;97292.84;4858272;29;20564;-64
2023/09/26 05:55:00;;;;;;;2.47;2.40;;;;;;;21.99;65.37;97311.53;4863988;29;20181;-63
2023/09/26 05:57:30;;;;;;;2.42;2.35;;;;;;;21.50;64.85;97278.78;4868239;29;20076;-59
2023/09/26 05:59:57;;;;;;;2.20;2.20;;;;;;;21.86;63.38;97307.78;4871005;29;20547;-66
2023/09/26 06:02:24;;;;;;;2.50;2.40;;;;;;;21.92;62.83;97311.72;4867528;29;20081;-66
2023/09/26 06:04:51;;;;;;;2.25;2.25;;;;;;;22.04;63.08;97313.81;4856410;29;20091;-70
2023/09/26 06:07:18;;;;;;;2.33;2.30;;;;;;;21.83;63.75;97314.31;4869579;29;20187;-60
2023/09/26 06:09:44;;;;;;;2.22;2.22;;;;;;;21.23;63.12;97218.97;4880183;29;20753;-67
2023/09/26 06:12:26;;;;;;;2.25;2.25;;;;;;;21.55;62.70;97303.66;4868442;29;20144;-63
2023/09/26 06:14:53;;;;;;;2.40;2.33;;;;;;;21.59;61.56;97281.03;4871299;29;20061;-63
2023/09/26 06:17:22;;;;;;;2.10;2.10;;;;;;;21.31;61.82;97254.25;4870327;29;20059;-63
2023/09/26 06:19:49;;;;;;;2.00;2.00;;;;;;;21.26;62.20;97245.50;4875930;29;20132;-69
2023/09/26 06:22:16;;;;;;;2.20;2.20;;;;;;;21.15;61.25;97211.91;4866208;29;20065;-66
2023/09/26 06:24:43;;;;;;;2.15;2.15;;;;;;;20.44;60.93;97062.59;4880765;29;20056;-63
2023/09/26 06:27:09;;;;;;;2.60;2.50;;;;;;;21.94;60.44;97281.00;4868895;29;20509;-63
2023/09/26 06:29:39;;;;;;;2.28;2.28;;;;;;;20.46;61.34;97079.84;4877357;29;20053;-63
2023/09/26 06:32:07;;;;;;;2.50;2.40;;;;;;;22.28;59.83;97340.66;4869607;29;20723;-65
2023/09/26 06:34:35;;;;;;;2.55;2.45;;;;;;;19.82;60.93;96978.28;4875382;29;20060;-67
2023/09/26 06:37:03;;;;;;;2.42;2.33;;;;;;;20.63;59.99;97068.19;4869473;29;20216;-64
2023/09/26 06:39:30;;;;;;;2.63;2.53;;;;;;;22.46;59.65;97332.53;4879294;29;20067;-67
2023/09/26 06:41:57;;;;;;;2.50;2.40;;;;;;;22.29;59.99;97330.94;4867461;29;20605;-68
2023/09/26 06:44:24;;;;;;;2.30;2.30;;;;;;;22.43;60.14;97341.91;4882820;29;20584;-61
2023/09/26 06:46:51;;;;;;;2.63;2.53;;;;;;;21.73;61.12;97304.06;4869820;29;20446;-65
2023/09/26 06:49:19;;;;;;;2.28;2.28;;;;;;;21.99;61.07;97290.97;4878779;29;20048;-67
2023/09/26 06:51:46;;;;;;;2.25;2.25;;;;;;;22.39;59.74;97307.31;4863614;29;20049;-68
2023/09/26 06:54:13;;;;;;;2.50;2.40;;;;;;;;;;4865847;29;20556;-62
2023/09/26 06:56:40;;;;;;;2.35;2.33;;;;;;;22.14;58.04;97256.34;4869180;29;20072;-60
2023/09/26 06:59:08;;;;;;;2.83;2.72;;;;;;;21.67;58.37;97201.44;4874247;29;20064;-67
2023/09/26 07:01:35;;;;;;;2.53;2.42;;;;;;;22.60;59.11;97344.75;4868818;29;20456;-69
2023/09/26 07:04:03;;;;;;;2.85;2.75;;;;;;;22.12;58.84;97278.56;4879807;29;20064;-70
2023/09/26 07:06:30;;;;;;;2.70;2.60;;;;;;;22.13;59.26;97285.78;4887579;29;20044;-68
2023/09/26 07:08:58;;;;;;;2.63;2.53;;;;;;;22.61;58.70;97332.19;4877780;29;20068;-63
2023/09/26 07:11:26;;;;;;;2.45;2.35;;;;;;;22.01;57.13;97213.13;4868409;29;20593;-71
2023/09/26 07:13:54;;;;;;;2.67;2.58;;;;;;;22.21;58.16;97295.66;4880873;29;20532;-66
2023/09/26 07:16:21;;;;;;;2.22;2.22;;;;;;;22.59;58.96;97343.16;4872041;29;20063;-63
2023/09/26 07:18:48;;;;;;;2.63;2.53;;;;;;;20.69;57.97;97048.78;4883073;29;20393;-62
2023/09/26 07:21:15;;;;;;;2.45;2.35;;;;;;;22.42;58.37;97328.22;4870646;29;20079;-60
2023/09/26 07:23:42;;;;;;;2.50;2.40;;;;;;;22.86;56.93;97343.69;4877467;29;20052;-62
2023/09/26 07:26:13;;;;;;;2.60;2.50;;;;;;;22.71;57.13;97348.09;4870934;29;20061;-64
2023/09/26 07:28:46;;;;;;;2.70;2.60;;;;;;;22.32;55.91;97205.88;4867031;29;20097;-63
2023/09/26 07:31:15;;;;;;;2.55;2.45;;;;;;;23.40;54.36;97358.75;4852498;29;20058;-66
2023/09/26 07:33:43;;;;;;;2.53;2.42;;;;;;;23.23;54.44;97300.63;4873576;29;20146;-63
2023/09/26 07:36:11;;;;;;;2.90;2.80;;;;;;;23.43;53.87;97349.34;4890877;29;20103;-68
2023/09/26 07:38:38;;;;;;;2.75;2.65;;;;;;;23.36;53.90;97350.34;4890812;29;20167;-68
2023/09/26 07:41:05;;;;;;;2.85;2.75;;;;;;;23.07;54.16;97295.84;4889469;29;20056;-67
2023/09/26 07:43:34;;;;;;;2.80;2.70;;;;;;;23.38;54.32;97355.56;4891056;29;20488;-62
2023/09/26 07:46:09;;;;;;;2.63;2.53;;;;;;;23.59;53.50;97354.94;4890899;29;20088;-65
2023/09/26 07:48:38;;;;;;;2.88;2.78;;;;;;;23.23;54.28;97320.44;4890277;29;20108;-63
2023/09/26 07:51:06;;;;;;;2.90;2.80;;;;;;;23.66;53.77;97337.78;4890310;29;20064;-64
2023/09/26 07:53:34;;;;;;;2.75;2.65;;;;;;;23.68;53.54;97318.31;4890621;29;20508;-68
2023/09/26 07:56:02;;;;;;;3.13;3.03;;;;;;;23.26;54.89;97342.19;4890633;29;20064;-67
2023/09/26 07:58:28;;;;;;;2.60;2.50;;;;;;;23.10;54.13;97286.47;4890181;29;20443;-68
2023/09/26 08:00:58;;;;;;;2.80;2.70;;;;;;;22.89;54.32;97233.38;4890564;29;20057;-63
2023/09/26 08:03:26;;;;;;;2.70;2.60;;;;;;;22.72;53.57;97149.13;4890896;29;20200;-68
2023/09/26 08:06:03;;;;;;;3.20;3.10;;;;;;;24.09;53.08;97331.66;4890648;29;20053;-68
2023/09/26 08:08:31;;;;;;;3.25;3.15;;;;;;;24.03;51.63;97293.81;4879903;29;20095;-69
2023/09/26 08:11:09;;;;;;;3.17;3.08;;;;;;;24.97;50.74;97335.97;4836318;29;20531;-67
2023/09/26 08:13:38;;;;;;;3.30;3.20;;;;;;;24.04;51.14;97301.88;4871080;29;20175;-64
2023/09/26 08:16:05;;;;;;;3.28;3.17;;;;;;;24.06;51.25;97333.31;4889890;29;20076;-62
2023/09/26 08:18:32;;;;;;;3.05;2.95;;;;;;;24.25;51.78;97340.81;4889604;29;20056;-68
2023/09/26 08:20:59;;;;;;;2.80;2.70;;;;;;;24.10;51.81;97339.69;4888602;29;20519;-64
2023/09/26 08:23:28;;;;;;;3.03;2.92;;;;;;;24.58;51.13;97332.84;4890224;29;20139;-63
2023/09/26 08:26:00;;;;;;;3.33;3.22;;;;;;;24.46;51.31;97340.13;4889635;29;20099;-67
2023/09/26 08:28:28;;;;;;;3.30;3.20;;;;;;;23.78;51.27;97277.59;4888592;29;20150;-63
2023/09/26 08:30:59;;;;;;;3.40;3.30;;;;;;;23.94;51.90;97308.63;4888837;29;20305;-62
2023/09/26 08:33:26;;;;;;;3.50;3.40;;;;;;;24.86;50.39;97329.88;4890306;29;20080;-69
2023/09/26 08:35:53;;;;;;;3.20;3.10;;;;;;;24.40;50.90;97307.94;4890137;29;20061;-68
2023/09/26 08:38:20;;;;;;;3.22;3.13;;;;;;;24.39;51.21;97300.69;4889535;29;20131;-63
2023/09/26 08:40:50;;;;;;;3.00;2.90;;;;;;;24.39;50.87;97346.00;4889995;29;20056;-68
2023/09/26 08:43:23;;;;;;;3.30;3.20;;;;;;;23.74;51.73;97265.59;4888147;29;20076;-69
2023/09/26 08:45:51;;;;;;;3.30;3.20;;;;;;;24.11;51.43;97323.47;4887909;29;20541;-68
2023/09/26 08:48:19;;;;;;;2.97;2.88;;;;;;;24.09;51.44;97355.06;4889744;29;20752;-70
2023/09/26 08:50:46;;;;;;;3.00;2.90;;;;;;;23.84;52.03;97343.69;4889442;29;20632;-68
2023/09/26 08:53:13;;;;;;;3.15;3.05;;;;;;;23.88;52.22;97345.16;4889642;29;20060;-70
2023/09/26 08:55:40;;;;;;;3.05;2.95;;;;;;;23.40;52.68;97347.44;4887889;29;20201;-67
2023/09/26 08:58:07;;;;;;;2.63;2.53;;;;;;;23.84;52.37;97338.03;4870859;29;20044;-68
2023/09/26 09:00:35;;;;;;;2.92;2.83;;;;;;;23.81;52.44;97344.59;4886768;29;20056;-64
2023/09/26 09:03:01;;;;;;;2.95;2.85;;;;;;;24.06;51.15;97338.22;4886680;29;20057;-64
2023/09/26 09:05:29;;;;;;;3.03;2.92;;;;;;;23.17;51.98;97238.22;4887707;29;20071;-64
2023/09/26 09:07:55;;;;;;;3.03;2.92;;;;;;;23.46;51.26;97243.81;4886008;29;20068;-64
2023/09/26 09:10:23;;;;;;;3.28;3.17;;;;;;;24.38;50.35;97321.78;4887459;29;20064;-65
2023/09/26 09:13:01;;;;;;;3.20;3.10;;;;;;;24.60;49.20;97288.66;4888829;29;20060;-63
2023/09/26 09:15:30;;;;;;;3.25;3.15;;;;;;;25.02;49.08;97321.19;4870306;29;20121;-63
2023/09/26 09:17:57;;;;;;;3.47;3.38;;;;;;;25.12;47.81;97320.03;4887197;29;20056;-69
2023/09/26 09:20:35;;;;;;;3.25;3.15;;;;;;;25.18;47.83;97315.34;4887082;29;20068;-62
2023/09/26 09:23:06;;;;;;;3.63;3.53;;;;;;;25.24;48.19;97316.34;4870271;29;20071;-67
2023/09/26 09:25:38;;;;;;;3.20;3.10;;;;;;;24.86;47.68;97312.06;4887499;29;20522;-63
2023/09/26 09:28:09;;;;;;;3.55;3.45;;;;;;;25.06;47.38;97293.50;4885647;29;20074;-63
2023/09/26 09:30:41;;;;;;;3.33;3.22;;;;;;;24.65;47.74;97259.75;4888569;29;20163;-68
2023/09/26 09:33:09;;;;;;;3.30;3.20;;;;;;;25.12;47.09;97325.69;4887619;29;20061;-67
2023/09/26 09:35:37;;;;;;;3.42;3.33;;;;;;;24.17;48.16;97271.50;4888777;29;20140;-63
2023/09/26 09:38:08;;;;;;;3.30;3.20;;;;;;;24.85;47.79;97322.59;4888358;29;20076;-67
2023/09/26 09:40:35;;;;;;;3.53;3.42;;;;;;;25.33;47.04;97318.47;4888860;29;20501;-63
2023/09/26 09:43:02;;;;;;;3.15;3.05;;;;;;;24.81;48.30;97327.63;4888746;29;20053;-63
2023/09/26 09:45:34;;;;;;;3.70;3.60;;;;;;;25.06;46.86;97253.03;4889011;29;20060;-64
2023/09/26 09:48:06;;;;;;;3.53;3.42;;;;;;;25.74;46.63;97318.13;4888533;29;20052;-65
2023/09/26 09:50:39;;;;;;;3.27;3.17;;;;;;;26.05;45.63;97312.50;4888299;29;20147;-64
2023/09/26 09:53:08;;;;;;;3.47;3.38;;;;;;;24.84;47.29;97298.38;4886730;29;20060;-65
2023/09/26 09:55:39;;;;;;;3.30;3.20;;;;;;;25.33;47.20;97307.13;4888817;29;20173;-65
2023/09/26 09:58:11;;;;;;;3.20;3.10;;;;;;;24.85;47.08;97277.25;4888465;29;20143;-67
2023/09/26 10:00:40;;;;;;;3.25;3.15;;;;;;;24.93;47.67;97312.59;4888958;29;20493;-67
2023/09/26 10:03:08;;;;;;;3.20;3.10;;;;;;;24.84;46.86;97257.88;4888448;29;20347;-64
2023/09/26 10:05:35;;;;;;;3.65;3.55;;;;;;;25.03;46.41;97253.94;4872090;29;20056;-66
2023/09/26 10:08:07;;;;;;;3.20;3.10;;;;;;;24.96;46.43;97260.66;4871160;29;20056;-63
2023/09/26 10:10:34;;;;;;;3.20;3.10;;;;;;;24.72;46.75;97256.66;4888092;29;20060;-67
2023/09/26 10:13:02;;;;;;;3.10;3.00;;;;;;;24.65;47.03;97245.56;4871554;29;20075;-64
2023/09/26 10:16:22;;;;;;;3.40;3.30;;;;;;;25.99;45.34;97294.44;4887480;29;20064;-68
2023/09/26 10:18:52;;;;;;;3.28;3.17;;;;;;;25.71;45.04;97250.16;4837164;29;20559;-63
2023/09/26 10:21:30;;;;;;;3.97;3.88;;;;;;;26.53;44.28;97280.47;4888244;29;20441;-63
2023/09/26 10:24:09;;;;;;;3.45;3.35;;;;;;;25.60;46.08;97290.31;4874679;29;20075;-63
2023/09/26 10:26:45;;;;;;;3.60;3.50;;;;;;;25.79;45.46;97265.66;4866267;29;20063;-66
2023/09/26 10:29:30;;;;;;;3.50;3.40;;;;;;;25.09;45.37;97213.19;4869454;29;20061;-60
2023/09/26 10:32:06;;;;;;;3.80;3.70;;;;;;;24.71;46.82;97226.75;4850879;29;20134;-68
2023/09/26 10:34:35;;;;;;;3.33;3.22;;;;;;;24.73;46.62;97212.94;4875695;29;20076;-64
2023/09/26 10:37:21;;;;;;;3.67;3.58;;;;;;;25.30;46.60;97285.34;4868421;29;20448;-64
2023/09/26 10:39:48;;;;;;;3.63;3.53;;;;;;;25.60;46.74;97281.00;4869959;29;20524;-61
2023/09/26 10:42:20;;;;;;;3.05;2.95;;;;;;;26.00;45.62;97276.19;4869645;29;20068;-60
2023/09/26 10:44:51;;;;;;;3.45;3.35;;;;;;;26.43;44.72;97278.88;4867492;29;20065;-62
2023/09/26 10:47:20;;;;;;;3.42;3.33;;;;;;;26.09;44.61;97205.22;4868719;29;20057;-61
2023/09/26 10:49:47;;;;;;;3.85;3.75;;;;;;;26.18;43.77;97236.50;4871869;29;20068;-62
2023/09/26 10:52:15;;;;;;;3.58;3.47;;;;;;;26.64;43.59;97252.41;4871842;29;20065;-62
2023/09/26 10:54:42;;;;;;;3.65;3.55;;;;;;;26.25;43.96;97202.94;4877091;29;20519;-60
2023/09/26 10:57:18;;;;;;;4.10;4.00;;;;;;;26.94;43.38;97242.97;4870236;29;20065;-63
2023/09/26 10:59:45;;;;;;;3.92;3.83;;;;;;;26.81;43.73;97262.22;4890716;29;20460;-62
2023/09/26 11:02:12;;;;;;;3.40;3.30;;;;;;;25.58;46.70;97277.81;4876807;29;20576;-66
2023/09/26 11:04:39;;;;;;;3.50;3.40;;;;;;;26.18;45.42;97253.53;4885434;29;20053;-64
2023/09/26 11:07:07;;;;;;;3.25;3.15;;;;;;;26.31;45.29;97234.31;4873310;29;20057;-66
2023/09/26 11:09:42;;;;;;;3.42;3.33;;;;;;;26.06;46.00;97272.28;4888808;29;20117;-61
2023/09/26 11:12:12;;;;;;;3.35;3.25;;;;;;;25.55;46.41;97207.81;4882803;29;20083;-63
2023/09/26 11:14:39;;;;;;;3.30;3.20;;;;;;;24.66;47.41;97116.84;4884331;29;20056;-61
2023/09/26 11:17:08;;;;;;;3.70;3.60;;;;;;;26.20;46.87;97256.69;4871022;29;20087;-61
2023/09/26 11:19:36;;;;;;;3.80;3.70;;;;;;;26.14;46.96;97286.97;4867643;29;20422;-69
2023/09/26 11:22:02;;;;;;;3.42;3.33;;;;;;;25.69;47.61;97273.31;4862503;29;20157;-65
2023/09/26 11:24:31;;;;;;;3.80;3.70;;;;;;;26.21;47.24;97275.31;4860369;29;20072;-63
2023/09/26 11:27:04;;;;;;;3.50;3.40;;;;;;;26.71;45.85;97274.88;4859270;29;20048;-68
2023/09/26 11:29:34;;;;;;;3.42;3.33;;;;;;;26.24;45.94;97275.19;4886551;29;20052;-66
2023/09/26 11:32:03;;;;;;;3.83;3.72;;;;;;;26.22;45.96;97254.19;4872663;29;20064;-64
2023/09/26 11:34:31;;;;;;;3.78;3.67;;;;;;;25.92;45.82;97212.41;4877368;29;20060;-67
2023/09/26 11:36:58;;;;;;;3.95;3.85;;;;;;;26.63;45.48;97270.72;4872179;29;20440;-73
2023/09/26 11:39:25;;;;;;;3.45;3.35;;;;;;;26.18;45.93;97270.56;4879651;29;20085;-66